Time;durP1;ratioP1;P1;durP2;ratioP2;P2;SDS_P1;SDS_P2;PMS_P1;PMS_P2;Temp;Humidity;BMP_temperature;BMP_pressure;BME280_temperature;BME280_humidity;BME280_pressure;Samples;Min_cycle;Max_cycle;Signal;HPM_P1;HPM_P2
2022/03/17 00:01:32;;;;;;;85.00;30.00;;;;;;;-0.13;98.01;101638.92;105017;1274;73599;-72
2022/03/17 00:04:22;;;;;;;76.40;28.70;;;;;;;-0.14;98.55;101642.25;104678;1278;68572;-74
2022/03/17 00:07:12;;;;;;;75.10;28.60;;;;;;;-0.15;98.28;101652.89;104648;1277;72687;-73
2022/03/17 00:10:01;;;;;;;75.60;27.90;;;;;;;-0.18;98.46;101651.52;105004;1275;59660;-73
2022/03/17 00:12:50;;;;;;;69.70;27.10;;;;;;;-0.19;98.60;101654.14;104572;1275;59660;-73
2022/03/17 00:15:40;;;;;;;73.10;26.90;;;;;;;-0.24;98.58;101652.44;104783;1273;71956;-73
2022/03/17 00:18:35;;;;;;;72.30;26.40;;;;;;;-0.26;98.98;101653.33;104909;1274;67890;-73
2022/03/17 00:21:28;;;;;;;67.10;24.50;;;;;;;-0.28;98.99;101656.13;104760;1274;72651;-73
2022/03/17 00:24:18;;;;;;;63.90;25.50;;;;;;;-0.31;98.93;101654.59;104826;1274;59787;-73
2022/03/17 00:27:10;;;;;;;68.70;25.50;;;;;;;-0.34;98.94;101655.83;104719;1277;60500;-74
2022/03/17 00:29:59;;;;;;;74.00;28.20;;;;;;;-0.38;98.80;101657.42;104631;1275;73343;-73
2022/03/17 00:32:48;;;;;;;49.10;19.40;;;;;;;-0.41;99.35;101652.55;104545;1274;69267;-72
2022/03/17 00:35:42;;;;;;;64.10;23.20;;;;;;;-0.47;98.91;101658.36;104746;1278;73329;-73
2022/03/17 00:38:31;;;;;;;57.90;22.80;;;;;;;-0.58;99.04;101654.41;104607;1275;59764;-73
2022/03/17 00:41:20;;;;;;;57.70;21.00;;;;;;;-0.66;99.18;101657.43;104737;1274;60580;-72
2022/03/17 00:44:14;;;;;;;70.00;26.30;;;;;;;-0.70;99.39;101654.13;104672;1274;73465;-72
2022/03/17 00:47:16;;;;;;;67.60;25.10;;;;;;;-0.70;99.84;101655.89;104864;1274;66908;-72
2022/03/17 00:50:10;;;;;;;71.40;26.50;;;;;;;-0.70;100.00;101652.90;104589;1274;71659;-73
2022/03/17 00:53:00;;;;;;;71.10;25.80;;;;;;;-0.69;99.98;101653.79;104932;1274;59762;-72
2022/03/17 00:55:49;;;;;;;69.20;28.30;;;;;;;-0.69;100.00;101653.09;104712;1274;60790;-72
2022/03/17 00:58:39;;;;;;;73.00;25.90;;;;;;;-0.71;99.99;101653.43;104610;1277;72481;-71
2022/03/17 01:01:32;;;;;;;53.00;22.50;;;;;;;-0.73;99.81;101652.75;104585;1275;68417;-73
2022/03/17 01:04:25;;;;;;;56.00;23.50;;;;;;;-0.81;99.13;101656.98;104910;1274;71664;-73
2022/03/17 01:07:15;;;;;;;69.00;27.10;;;;;;;-0.83;99.66;101657.16;104865;1274;59791;-73
2022/03/17 01:10:13;;;;;;;67.60;26.70;;;;;;;-0.90;99.75;101655.99;104793;1274;60278;-74
2022/03/17 01:13:03;;;;;;;59.20;22.80;;;;;;;-0.99;99.68;101648.71;104984;1275;73440;-73
2022/03/17 01:15:51;;;;;;;79.40;28.40;;;;;;;-1.07;99.79;101650.46;104647;1274;66845;-73
2022/03/17 01:18:42;;;;;;;79.60;29.50;;;;;;;-1.10;100.00;101650.48;104685;1274;72547;-73
2022/03/17 01:21:34;;;;;;;78.00;27.90;;;;;;;-1.10;100.00;101650.84;104863;1277;59740;-74
2022/03/17 01:24:23;;;;;;;73.50;26.00;;;;;;;-1.10;99.98;101653.11;105020;1274;60543;-73
2022/03/17 01:27:13;;;;;;;77.50;28.60;;;;;;;-1.12;100.00;101654.15;104738;1274;73446;-73
2022/03/17 01:30:07;;;;;;;80.60;29.20;;;;;;;-1.13;100.00;101654.51;104774;1274;66981;-74
2022/03/17 01:33:03;;;;;;;82.10;29.90;;;;;;;-1.12;100.00;101656.95;104809;1273;71467;-74
2022/03/17 01:35:51;;;;;;;79.40;29.30;;;;;;;-1.11;100.00;101656.94;104592;1274;59713;-73
2022/03/17 01:38:43;;;;;;;68.10;26.90;;;;;;;-1.12;100.00;101658.86;105005;1277;60537;-74
2022/03/17 01:41:32;;;;;;;66.40;26.10;;;;;;;-1.13;100.00;101663.22;104636;1275;73733;-74
2022/03/17 01:44:22;;;;;;;59.20;24.00;;;;;;;-1.16;100.00;101666.36;104493;1277;68602;-74
2022/03/17 01:47:29;;;;;;;60.10;24.60;;;;;;;-1.16;100.00;101665.15;104547;1274;72274;-73
2022/03/17 01:50:19;;;;;;;57.00;23.80;;;;;;;-1.18;99.99;101670.04;104691;1274;59669;-73
2022/03/17 01:53:11;;;;;;;58.00;24.20;;;;;;;-1.20;100.00;101670.73;104740;1274;60586;-74
2022/03/17 01:56:03;;;;;;;51.70;21.40;;;;;;;-1.21;100.00;101674.39;104504;1278;71994;-74
2022/03/17 01:59:00;;;;;;;61.10;24.00;;;;;;;-1.26;100.00;101675.63;104822;1274;67436;-72
2022/03/17 02:01:54;;;;;;;63.00;25.00;;;;;;;-1.33;100.00;101679.48;104490;1274;71927;-73
2022/03/17 02:04:47;;;;;;;72.80;25.00;;;;;;;-1.38;99.98;101686.11;104684;1274;59664;-73
2022/03/17 02:07:36;;;;;;;64.40;25.20;;;;;;;-1.34;100.00;101684.88;104687;1275;60646;-73
2022/03/17 02:13:08;;;;;;;73.60;25.80;;;;;;;-1.32;100.00;101680.52;104738;1274;73533;-72
2022/03/17 02:13:46;;;;;;;74.40;26.80;;;;;;;-1.30;100.00;101670.24;104897;1274;67227;-72
2022/03/17 02:16:35;;;;;;;67.60;26.10;;;;;;;-1.27;100.00;101671.28;104708;1274;71645;-72
2022/03/17 02:19:28;;;;;;;55.10;23.80;;;;;;;-1.27;100.00;101669.36;104044;1274;1003690;-73
2022/03/17 02:22:22;;;;;;;57.50;24.00;;;;;;;-1.29;100.00;101665.52;104920;1274;59689;-73
2022/03/17 02:28:25;;;;;;;61.60;24.60;;;;;;;-1.30;100.00;101667.27;104987;1274;68069;-73
2022/03/17 02:31:18;;;;;;;65.60;26.40;;;;;;;-1.26;100.00;101668.66;104748;1274;72996;-72
2022/03/17 02:34:09;;;;;;;70.20;26.00;;;;;;;-1.24;100.00;101670.92;104578;1274;59716;-73
2022/03/17 02:37:00;;;;;;;67.10;26.60;;;;;;;-1.22;100.00;101668.30;104797;1274;60974;-73
2022/03/17 02:39:50;;;;;;;72.80;26.80;;;;;;;-1.19;100.00;101667.41;104876;1276;74911;-72
2022/03/17 02:42:43;;;;;;;70.00;24.90;;;;;;;-1.14;100.00;101667.22;104768;1274;68216;-73
2022/03/17 02:45:35;;;;;;;70.40;25.30;;;;;;;-1.14;100.00;101666.54;104743;1274;71572;-73
2022/03/17 02:48:24;;;;;;;74.40;26.50;;;;;;;-1.10;100.00;101666.88;104854;1274;59660;-73
2022/03/17 02:51:13;;;;;;;74.00;25.40;;;;;;;-1.04;100.00;101667.54;104970;1273;59660;-72
2022/03/17 02:54:02;;;;;;;54.80;20.90;;;;;;;-1.03;100.00;101661.79;104824;1273;72375;-72
2022/03/17 02:56:51;;;;;;;65.70;24.10;;;;;;;-1.05;100.00;101657.61;104939;1274;66525;-71
2022/03/17 02:59:40;;;;;;;66.90;23.30;;;;;;;-1.06;100.00;101658.66;104995;1275;73099;-72
2022/03/17 03:02:30;;;;;;;67.60;23.20;;;;;;;-1.07;100.00;101665.11;104794;1274;59610;-72
2022/03/17 03:05:19;;;;;;;71.50;24.80;;;;;;;-1.08;100.00;101671.56;104442;1277;60760;-71
2022/03/17 03:08:08;;;;;;;72.50;25.80;;;;;;;-1.12;100.00;101670.54;104418;1277;72294;-72
2022/03/17 03:10:57;;;;;;;69.90;24.00;;;;;;;-1.11;100.00;101674.89;104444;1277;66783;-72
2022/03/17 03:13:46;;;;;;;76.40;27.30;;;;;;;-1.11;100.00;101680.64;104518;1278;72826;-73
2022/03/17 03:16:35;;;;;;;73.10;25.20;;;;;;;-1.10;100.00;101676.81;104673;1276;59698;-72
2022/03/17 03:19:26;;;;;;;68.40;23.70;;;;;;;-1.12;100.00;101676.27;104577;1276;60763;-71
2022/03/17 03:22:17;;;;;;;73.30;26.50;;;;;;;-1.13;100.00;101679.59;104423;1277;72225;-72
2022/03/17 03:25:09;;;;;;;66.60;23.50;;;;;;;-1.13;100.00;101679.60;104421;1277;67826;-71
2022/03/17 03:28:07;;;;;;;67.40;24.30;;;;;;;-1.14;100.00;101680.12;104595;1277;73211;-72
2022/03/17 03:30:56;;;;;;;66.60;24.10;;;;;;;-1.20;100.00;101680.30;104466;1278;59583;-71
2022/03/17 03:33:50;;;;;;;70.50;25.40;;;;;;;-1.25;100.00;101682.94;104457;1278;59633;-72
2022/03/17 03:39:46;;;;;;;51.90;20.90;;;;;;;-1.39;100.00;101687.67;104963;1273;68473;-74
2022/03/17 03:42:35;;;;;;;66.80;24.50;;;;;;;-1.49;100.00;101686.31;104533;1275;73037;-73
2022/03/17 03:45:25;;;;;;;69.70;25.00;;;;;;;-1.54;100.00;101691.54;104512;1273;59536;-73
2022/03/17 03:48:16;;;;;;;66.30;24.70;;;;;;;-1.59;100.00;101694.16;104517;1274;59662;-73
2022/03/17 03:51:05;;;;;;;63.60;25.20;;;;;;;-1.64;100.00;101691.72;104812;1273;73615;-73
2022/03/17 03:57:03;;;;;;;59.20;23.40;;;;;;;-1.71;100.00;101687.73;104849;1273;71659;-73
2022/03/17 03:59:57;;;;;;;67.40;25.60;;;;;;;-1.70;100.00;101687.90;104745;1273;59694;-74
2022/03/17 04:02:46;;;;;;;66.70;24.40;;;;;;;-1.73;100.00;101684.60;104665;1273;59698;-73
2022/03/17 04:05:37;;;;;;;70.90;24.00;;;;;;;-1.68;100.00;101691.73;104845;1273;72454;-74
2022/03/17 04:08:26;;;;;;;58.70;22.80;;;;;;;-1.67;100.00;101696.08;104733;1273;67105;-74
2022/03/17 04:11:15;;;;;;;65.00;23.20;;;;;;;-1.67;100.00;101697.83;104521;1274;70846;-73
2022/03/17 04:14:04;;;;;;;66.10;25.60;;;;;;;-1.69;100.00;101696.60;104640;1274;59696;-72
2022/03/17 04:16:53;;;;;;;92.00;29.40;;;;;;;-1.71;100.00;101698.88;104764;1273;61122;-72
2022/03/17 04:19:41;;;;;;;79.10;26.90;;;;;;;-1.74;100.00;101697.30;104697;1273;73408;-73
2022/03/17 04:22:30;;;;;;;69.90;25.40;;;;;;;-1.79;100.00;101696.09;104577;1276;67062;-73
2022/03/17 04:25:19;;;;;;;72.40;25.90;;;;;;;-1.83;100.00;101698.17;104861;1274;72565;-72
2022/03/17 04:28:09;;;;;;;97.30;30.10;;;;;;;-1.85;100.00;101696.08;104815;1273;59741;-72
2022/03/17 04:30:59;;;;;;;158.70;37.80;;;;;;;-1.86;100.00;101702.02;104736;1273;59689;-72
2022/03/17 04:33:51;;;;;;;225.80;49.50;;;;;;;-1.92;100.00;101703.05;104838;1273;72581;-72
2022/03/17 04:36:41;;;;;;;201.50;45.30;;;;;;;-1.87;100.00;101715.05;104740;1273;66636;-73
2022/03/17 04:39:30;;;;;;;153.10;39.20;;;;;;;-1.86;100.00;101717.84;104758;1274;73494;-72
2022/03/17 04:42:18;;;;;;;142.10;36.00;;;;;;;-1.88;100.00;101714.54;104617;1273;59647;-72
2022/03/17 04:45:08;;;;;;;135.40;35.20;;;;;;;-1.83;100.00;101720.98;104516;1276;59983;-72
2022/03/17 04:48:03;;;;;;;129.40;33.10;;;;;;;-1.80;100.00;101725.85;104644;1276;73341;-73
2022/03/17 04:50:52;;;;;;;136.50;33.80;;;;;;;-1.74;100.00;101726.37;104723;1274;68168;-73
2022/03/17 04:53:45;;;;;;;128.20;33.90;;;;;;;-1.70;100.00;101720.80;105612;1273;73057;-73
2022/03/17 04:56:38;;;;;;;126.40;33.90;;;;;;;-1.67;100.00;101725.15;105094;1273;59680;-73
2022/03/17 04:59:27;;;;;;;116.20;31.80;;;;;;;-1.66;100.00;101725.14;105138;1273;59778;-75
2022/03/17 05:02:19;;;;;;;123.70;32.20;;;;;;;-1.67;100.00;101722.71;104882;1274;71862;-74
2022/03/17 05:05:08;;;;;;;179.30;40.20;;;;;;;-1.69;100.00;101725.14;105087;1273;66248;-73
2022/03/17 05:07:57;;;;;;;127.40;36.00;;;;;;;-1.70;100.00;101727.05;104744;1274;72971;-72
2022/03/17 05:10:47;;;;;;;133.40;35.60;;;;;;;-1.68;100.00;101722.54;104887;1274;59679;-74
2022/03/17 05:13:39;;;;;;;119.90;34.50;;;;;;;-1.65;100.00;101715.58;104748;1274;59580;-72
2022/03/17 05:16:29;;;;;;;102.30;29.80;;;;;;;-1.59;100.00;101712.96;104899;1274;73464;-73
2022/03/17 05:19:18;;;;;;;78.20;27.40;;;;;;;-1.49;100.00;101713.98;104888;1274;68157;-73
2022/03/17 05:22:07;;;;;;;60.00;24.30;;;;;;;-1.44;100.00;101708.23;104948;1274;73095;-73
2022/03/17 05:24:56;;;;;;;63.10;25.10;;;;;;;-1.25;100.00;101719.70;104949;1274;59666;-74
2022/03/17 05:27:48;;;;;;;64.30;23.90;;;;;;;-1.12;100.00;101725.05;104951;1273;60782;-73
2022/03/17 05:30:39;;;;;;;56.40;23.40;;;;;;;-0.99;100.00;101727.80;104928;1273;73395;-74
2022/03/17 05:33:29;;;;;;;46.10;20.70;;;;;;;-0.86;100.00;101732.29;104915;1273;67016;-73
2022/03/17 05:36:18;;;;;;;48.50;19.80;;;;;;;-0.74;100.00;101732.94;104862;1273;72466;-72
2022/03/17 05:39:07;;;;;;;47.50;21.50;;;;;;;-0.63;100.00;101734.81;105101;1274;59717;-74
2022/03/17 05:41:59;;;;;;;49.90;21.50;;;;;;;-0.54;100.00;101730.41;104714;1273;60518;-74
2022/03/17 05:44:53;;;;;;;46.00;20.40;;;;;;;-0.43;100.00;101733.66;104721;1273;72887;-73
2022/03/17 05:47:51;;;;;;;42.10;20.40;;;;;;;-0.33;99.83;101729.77;105941;1274;67108;-74
2022/03/17 05:50:45;;;;;;;45.40;20.20;;;;;;;-0.24;99.52;101729.20;105075;1274;72864;-73
2022/03/17 05:53:35;;;;;;;45.50;22.00;;;;;;;-0.13;99.07;101734.35;104957;1273;59743;-74
2022/03/17 05:56:28;;;;;;;39.10;19.40;;;;;;;-0.03;98.58;101737.61;104869;1273;60301;-74
2022/03/17 05:59:20;;;;;;;42.50;20.50;;;;;;;0.04;98.39;101734.77;104971;1273;73267;-74
2022/03/17 06:02:09;;;;;;;45.20;20.60;;;;;;;0.15;97.82;101738.52;104709;1273;68529;-74
2022/03/17 06:05:07;;;;;;;42.50;19.60;;;;;;;0.22;97.45;101738.98;104793;1273;73322;-74
2022/03/17 06:08:02;;;;;;;41.20;19.60;;;;;;;0.30;97.10;101745.55;104931;1273;59654;-74
2022/03/17 06:10:55;;;;;;;40.90;19.60;;;;;;;0.39;96.51;101745.84;104903;1273;60282;-74
2022/03/17 06:13:44;;;;;;;38.40;18.60;;;;;;;0.49;96.13;101751.69;104881;1273;73203;-74
2022/03/17 06:16:34;;;;;;;39.40;18.60;;;;;;;0.59;95.91;101745.48;104590;1273;68120;-74
2022/03/17 06:19:26;;;;;;;40.30;19.40;;;;;;;0.69;95.55;101743.64;104852;1273;71855;-74
2022/03/17 06:22:19;;;;;;;38.00;18.50;;;;;;;0.79;95.00;101742.31;103972;1273;1003341;-74
2022/03/17 06:25:11;;;;;;;32.20;15.40;;;;;;;0.88;94.67;101740.13;104732;1273;61111;-74
2022/03/17 06:28:00;;;;;;;39.20;18.60;;;;;;;0.98;93.96;101745.43;104644;1273;73547;-73
2022/03/17 06:30:51;;;;;;;42.10;20.20;;;;;;;1.06;93.00;101741.86;104679;1273;66544;-75
2022/03/17 06:33:40;;;;;;;37.90;19.50;;;;;;;1.17;92.80;101738.58;104723;1273;71905;-74
2022/03/17 06:36:30;;;;;;;36.80;18.50;;;;;;;1.27;92.20;101736.01;104983;1273;59589;-74
2022/03/17 06:39:21;;;;;;;40.10;20.50;;;;;;;1.40;91.39;101740.39;104684;1273;59691;-74
2022/03/17 06:42:10;;;;;;;39.30;19.80;;;;;;;1.50;90.30;101745.16;104660;1273;73435;-75
2022/03/17 06:44:58;;;;;;;47.30;20.60;;;;;;;1.57;89.59;101743.31;104752;1273;68445;-74
2022/03/17 06:47:48;;;;;;;40.70;20.10;;;;;;;1.70;88.63;101749.95;103308;1273;1003490;-74
2022/03/17 06:50:36;;;;;;;35.80;19.20;;;;;;;1.85;88.67;101754.84;104609;1273;357694;-75
2022/03/17 06:53:27;;;;;;;37.60;19.70;;;;;;;2.04;88.73;101761.39;104757;1272;59701;-74
2022/03/17 06:56:18;;;;;;;35.00;17.80;;;;;;;2.22;86.81;101764.08;104704;1273;73417;-74
2022/03/17 06:59:10;;;;;;;31.90;16.20;;;;;;;2.42;86.18;101770.24;104987;1273;68844;-74
2022/03/17 07:02:02;;;;;;;36.60;18.70;;;;;;;2.65;84.02;101761.78;105203;1273;72724;-72
2022/03/17 07:04:59;;;;;;;37.20;19.70;;;;;;;3.36;81.13;101761.82;104756;1273;59676;-73
2022/03/17 07:07:49;;;;;;;35.10;19.00;;;;;;;5.28;75.44;101753.61;103732;1276;1003422;-75
2022/03/17 07:10:39;;;;;;;36.70;18.80;;;;;;;7.08;68.96;101755.06;104775;1276;72989;-74
2022/03/17 07:13:34;;;;;;;31.00;18.20;;;;;;;8.73;65.67;101748.26;104666;1276;66703;-75
2022/03/17 07:16:23;;;;;;;31.20;19.10;;;;;;;10.02;56.48;101748.06;104638;1276;70866;-74
2022/03/17 07:19:12;;;;;;;31.10;15.90;;;;;;;11.00;53.36;101749.71;104655;1277;59691;-75
2022/03/17 07:22:02;;;;;;;30.80;18.70;;;;;;;11.66;50.43;101745.45;104845;1277;59771;-76
2022/03/17 07:24:51;;;;;;;29.90;18.50;;;;;;;12.26;47.27;101742.10;104443;1276;73465;-74
2022/03/17 07:27:45;;;;;;;33.10;19.70;;;;;;;12.87;44.94;101743.67;104565;1276;68170;-76
2022/03/17 07:30:38;;;;;;;31.00;19.00;;;;;;;13.29;43.42;101745.41;104655;1276;70615;-76
2022/03/17 07:33:32;;;;;;;31.40;19.90;;;;;;;13.91;43.21;101744.35;104316;1276;59590;-75
2022/03/17 07:36:23;;;;;;;33.10;21.60;;;;;;;14.22;39.15;101743.56;104565;1276;60908;-75
2022/03/17 07:39:12;;;;;;;32.30;20.00;;;;;;;14.75;39.10;101738.09;104557;1276;72460;-75
2022/03/17 07:42:04;;;;;;;33.40;20.90;;;;;;;15.12;38.02;101733.69;104498;1276;67914;-75
2022/03/17 07:45:12;;;;;;;36.80;21.40;;;;;;;15.61;37.14;101737.34;104571;1276;73175;-76
2022/03/17 07:48:26;;;;;;;28.30;19.10;;;;;;;16.17;36.08;101733.48;104768;1273;59547;-75
2022/03/17 07:51:24;;;;;;;28.50;18.50;;;;;;;16.84;35.59;101739.33;104781;1273;59774;-75
2022/03/17 07:54:12;;;;;;;31.50;21.00;;;;;;;17.36;33.60;101737.96;104682;1273;73607;-75
2022/03/17 07:57:03;;;;;;;30.20;19.50;;;;;;;17.82;33.12;101738.02;104706;1273;66627;-75
2022/03/17 07:59:53;;;;;;;29.80;20.10;;;;;;;18.20;31.83;101734.79;104689;1273;72004;-76
2022/03/17 08:02:42;;;;;;;30.40;20.10;;;;;;;18.55;30.72;101740.42;104791;1273;59756;-75
2022/03/17 08:05:32;;;;;;;27.60;17.40;;;;;;;18.65;30.33;101741.55;104663;1273;60768;-76
2022/03/17 08:08:20;;;;;;;28.20;19.20;;;;;;;18.72;30.34;101738.84;104788;1273;73091;-75
2022/03/17 08:11:09;;;;;;;31.00;19.30;;;;;;;18.99;29.85;101734.52;104711;1273;67139;-74
2022/03/17 08:13:58;;;;;;;29.40;19.80;;;;;;;19.43;29.34;101735.91;104634;1273;71359;-75
2022/03/17 08:16:48;;;;;;;26.00;18.90;;;;;;;19.77;28.33;101739.52;104746;1273;59822;-75
2022/03/17 08:19:46;;;;;;;30.40;19.00;;;;;;;19.87;27.05;101741.52;104912;1273;61100;-75
2022/03/17 08:22:42;;;;;;;38.70;20.70;;;;;;;19.97;26.81;101737.21;104847;1273;72089;-75
2022/03/17 08:25:34;;;;;;;31.00;20.00;;;;;;;20.20;26.23;101734.62;105025;1273;68135;-76
2022/03/17 08:28:30;;;;;;;29.70;20.70;;;;;;;20.47;26.59;101731.49;104884;1273;73336;-77
2022/03/17 08:31:22;;;;;;;27.80;20.20;;;;;;;20.81;25.70;101725.38;104722;1276;59691;-78
2022/03/17 08:34:13;;;;;;;25.40;18.10;;;;;;;20.78;25.09;101727.75;104670;1273;59573;-76
2022/03/17 08:37:06;;;;;;;36.30;23.20;;;;;;;20.81;25.43;101728.77;104906;1273;72302;-78
2022/03/17 08:39:56;;;;;;;28.20;19.70;;;;;;;21.01;24.63;101723.23;104890;1273;68338;-78
2022/03/17 08:42:45;;;;;;;35.50;21.20;;;;;;;21.16;24.17;101718.91;104948;1273;73136;-78
2022/03/17 08:51:54;;;;;;;29.70;21.40;;;;;;;21.59;23.06;101713.65;104978;1273;73489;-78
2022/03/17 08:54:44;;;;;;;30.10;20.80;;;;;;;21.61;22.74;101716.89;104942;1273;68192;-78
2022/03/17 08:57:37;;;;;;;30.50;20.60;;;;;;;21.38;21.88;101714.98;104813;1276;71480;-78
2022/03/17 09:00:34;;;;;;;29.20;20.50;;;;;;;21.34;22.34;101716.27;104526;1276;59406;-78
2022/03/17 09:03:26;;;;;;;30.30;21.30;;;;;;;21.39;22.08;101711.98;104818;1276;59640;-78
2022/03/17 09:06:15;;;;;;;28.90;20.20;;;;;;;21.57;21.87;101719.34;104613;1277;73727;-78
2022/03/17 09:09:05;;;;;;;27.60;19.20;;;;;;;21.49;21.72;101713.88;104595;1276;68052;-79
2022/03/17 09:11:57;;;;;;;29.60;20.60;;;;;;;21.80;22.06;101708.53;104633;1276;73427;-79
2022/03/17 09:14:47;;;;;;;32.20;21.50;;;;;;;21.96;21.03;101709.45;104571;1276;59759;-78
2022/03/17 09:17:47;;;;;;;34.10;21.80;;;;;;;21.77;20.30;101702.89;104667;1275;60254;-78
2022/03/17 09:20:39;;;;;;;29.70;19.90;;;;;;;21.54;20.54;101697.23;104703;1276;72273;-78
2022/03/17 09:23:34;;;;;;;27.50;19.20;;;;;;;21.69;20.93;101694.96;104909;1276;66798;-78
2022/03/17 09:26:22;;;;;;;32.50;21.20;;;;;;;21.82;20.40;101692.25;104879;1277;71299;-78
2022/03/17 09:29:16;;;;;;;28.00;20.30;;;;;;;21.60;19.96;101693.03;104995;1273;59765;-78
2022/03/17 09:32:05;;;;;;;30.30;21.10;;;;;;;21.79;20.71;101688.40;105090;1273;59596;-79
2022/03/17 09:34:58;;;;;;;29.30;20.70;;;;;;;22.06;20.13;101691.44;104953;1273;73773;-80
2022/03/17 09:37:47;;;;;;;28.30;19.90;;;;;;;22.04;19.64;101692.77;104972;1273;67147;-79
2022/03/17 09:40:38;;;;;;;32.00;21.80;;;;;;;22.22;19.86;101692.63;104887;1273;72962;-79
2022/03/17 09:43:31;;;;;;;29.90;21.70;;;;;;;22.47;19.71;101695.53;104840;1274;59589;-79
2022/03/17 09:46:23;;;;;;;29.80;19.80;;;;;;;22.60;19.52;101696.17;104971;1273;59644;-79
2022/03/17 09:49:14;;;;;;;32.50;20.10;;;;;;;23.11;20.17;101697.04;104988;1273;73634;-79
2022/03/17 09:52:13;;;;;;;30.50;21.50;;;;;;;23.51;20.65;101700.20;104713;1273;68142;-79
2022/03/17 09:55:07;;;;;;;27.40;19.20;;;;;;;24.13;19.88;101695.77;104966;1273;71747;-79
2022/03/17 09:57:56;;;;;;;28.60;20.50;;;;;;;24.52;18.62;101696.66;104791;1274;59735;-79
2022/03/17 10:00:48;;;;;;;27.20;19.70;;;;;;;24.83;18.18;101688.16;105041;1274;60625;-79
2022/03/17 10:03:44;;;;;;;35.10;21.90;;;;;;;25.00;17.56;101686.54;105233;1274;73282;-79
2022/03/17 10:06:36;;;;;;;30.00;20.80;;;;;;;25.08;17.20;101685.86;104744;1274;68954;-79
2022/03/17 10:09:27;;;;;;;28.20;19.00;;;;;;;25.27;16.88;101685.94;105150;1274;72930;-80
2022/03/17 10:12:22;;;;;;;29.40;19.40;;;;;;;25.19;16.64;101682.80;104948;1274;59753;-79
2022/03/17 10:15:20;;;;;;;28.20;17.00;;;;;;;25.00;16.35;101679.29;105185;1274;60911;-80
2022/03/17 10:18:27;;;;;;;29.70;22.10;;;;;;;25.28;17.26;101676.88;104931;1273;73340;-80
2022/03/17 10:21:24;;;;;;;33.40;21.00;;;;;;;25.18;17.79;101674.61;105193;1273;67747;-79
2022/03/17 10:24:13;;;;;;;26.50;20.00;;;;;;;24.70;17.67;101670.77;104988;1273;73683;-80
2022/03/17 10:27:04;;;;;;;27.90;20.70;;;;;;;25.03;17.82;101678.85;104803;1274;59645;-79
2022/03/17 10:30:06;;;;;;;28.30;21.10;;;;;;;24.87;17.48;101685.36;104870;1273;60575;-79
2022/03/17 10:33:04;;;;;;;28.00;20.90;;;;;;;24.49;17.70;101687.75;104933;1273;73390;-79
2022/03/17 10:36:21;;;;;;;26.60;18.30;;;;;;;24.52;17.59;101683.61;104763;1273;68549;-80
2022/03/17 10:39:17;;;;;;;26.60;18.90;;;;;;;23.83;17.58;101679.56;105139;1274;72988;-79
2022/03/17 10:42:12;;;;;;;27.80;19.60;;;;;;;23.96;18.58;101679.64;104874;1273;59785;-79
2022/03/17 10:45:06;;;;;;;31.70;21.50;;;;;;;24.10;18.18;101674.71;105186;1274;60658;-80
2022/03/17 10:48:15;;;;;;;29.30;21.70;;;;;;;23.76;18.21;101672.01;105146;1274;72916;-82
2022/03/17 10:51:05;;;;;;;25.80;18.50;;;;;;;23.60;18.39;101676.05;104942;1273;66782;-79
2022/03/17 10:54:24;;;;;;;24.10;16.60;;;;;;;23.80;18.27;101665.40;104977;1274;72028;-80
2022/03/17 10:57:15;;;;;;;25.10;18.70;;;;;;;23.89;18.46;101668.98;105120;1273;59790;-79
2022/03/17 11:00:10;;;;;;;26.30;19.50;;;;;;;23.32;19.11;101665.11;104846;1274;60713;-79
2022/03/17 11:02:58;;;;;;;30.90;20.30;;;;;;;23.26;20.01;101659.38;104990;1273;73763;-78
2022/03/17 11:05:51;;;;;;;29.90;20.80;;;;;;;23.64;19.91;101656.77;104888;1274;68335;-80
2022/03/17 11:08:46;;;;;;;26.20;17.40;;;;;;;22.80;20.03;101654.83;104810;1273;72963;-79
2022/03/17 11:11:37;;;;;;;26.20;19.30;;;;;;;22.47;20.73;101666.17;105101;1274;59709;-80
2022/03/17 11:14:25;;;;;;;26.30;18.80;;;;;;;21.90;21.15;101661.45;104922;1273;59652;-78
2022/03/17 11:17:24;;;;;;;27.90;18.70;;;;;;;21.76;21.56;101659.48;104922;1274;71658;-80
2022/03/17 11:20:19;;;;;;;27.30;18.90;;;;;;;21.23;21.87;101658.45;104817;1273;68680;-79
2022/03/17 11:23:20;;;;;;;27.20;18.30;;;;;;;20.62;22.49;101662.77;105154;1273;73116;-78
2022/03/17 11:26:09;;;;;;;26.10;18.20;;;;;;;20.20;22.91;101664.54;104989;1273;59672;-79
2022/03/17 11:29:13;;;;;;;26.40;18.30;;;;;;;19.84;23.51;101665.67;104752;1274;60412;-78
2022/03/17 11:32:02;;;;;;;24.40;16.20;;;;;;;19.72;23.18;101665.67;105079;1273;73591;-80
2022/03/17 11:35:04;;;;;;;25.80;19.50;;;;;;;19.13;24.12;101666.03;104770;1273;67378;-79
2022/03/17 11:38:16;;;;;;;28.00;18.90;;;;;;;18.73;24.89;101667.02;105222;1271;71776;-79
2022/03/17 11:41:16;;;;;;;28.50;18.30;;;;;;;18.08;25.64;101675.44;104983;1273;59761;-79
2022/03/17 11:44:05;;;;;;;26.60;18.40;;;;;;;18.04;26.09;101668.69;104798;1271;60965;-79
2022/03/17 11:46:56;;;;;;;29.70;19.10;;;;;;;17.71;26.70;101671.43;104624;1271;73455;-78
2022/03/17 11:49:50;;;;;;;26.00;17.60;;;;;;;17.85;26.74;101666.32;104934;1272;68176;-78
2022/03/17 11:52:42;;;;;;;24.90;17.10;;;;;;;17.83;26.69;101658.77;104756;1274;73082;-79
2022/03/17 11:55:42;;;;;;;28.40;18.60;;;;;;;17.37;27.09;101659.52;104911;1271;59628;-79
2022/03/17 11:58:43;;;;;;;28.20;18.60;;;;;;;16.62;27.75;101664.48;105322;1271;60039;-78
2022/03/17 12:01:39;;;;;;;37.40;19.90;;;;;;;16.06;28.70;101659.63;105214;1272;73520;-79
2022/03/17 12:04:32;;;;;;;29.50;19.50;;;;;;;15.38;29.41;101662.33;105131;1272;67894;-78
2022/03/17 12:07:20;;;;;;;28.10;19.40;;;;;;;14.92;29.89;101657.89;104928;1272;71761;-78
2022/03/17 12:10:09;;;;;;;30.60;19.60;;;;;;;14.61;30.63;101653.45;104796;1271;59746;-78
2022/03/17 12:13:21;;;;;;;30.20;19.80;;;;;;;14.30;31.38;101660.16;104731;1271;61295;-78
2022/03/17 12:16:14;;;;;;;27.20;17.70;;;;;;;14.10;31.79;101652.44;105109;1272;71843;-78
2022/03/17 12:19:03;;;;;;;30.10;19.40;;;;;;;13.88;32.20;101648.53;104989;1274;68364;-75
2022/03/17 12:21:57;;;;;;;28.60;18.00;;;;;;;13.86;32.26;101651.21;104953;1271;72832;-76
2022/03/17 12:24:58;;;;;;;31.70;19.00;;;;;;;13.81;32.51;101646.20;105200;1272;59607;-76
2022/03/17 12:27:56;;;;;;;30.10;19.00;;;;;;;13.82;32.61;101650.40;104966;1272;61052;-75
2022/03/17 12:30:48;;;;;;;29.00;19.40;;;;;;;13.59;32.75;101643.29;104888;1271;73582;-75
2022/03/17 12:33:43;;;;;;;35.70;19.10;;;;;;;13.46;33.20;101648.29;104933;1274;67068;-77
2022/03/17 12:36:32;;;;;;;28.10;17.90;;;;;;;13.30;33.67;101650.48;104716;1274;73205;-75
2022/03/17 12:39:33;;;;;;;32.00;18.60;;;;;;;12.99;34.37;101649.56;104764;1272;59759;-74
2022/03/17 12:42:28;;;;;;;34.80;20.80;;;;;;;12.58;35.30;101648.38;105004;1273;60360;-75
2022/03/17 12:45:21;;;;;;;29.90;18.60;;;;;;;12.31;36.14;101649.44;104239;1274;1003118;-75
2022/03/17 12:48:11;;;;;;;33.50;20.30;;;;;;;12.20;36.37;101650.49;104996;1272;67479;-74
2022/03/17 12:51:11;;;;;;;36.30;21.20;;;;;;;12.06;36.48;101650.93;104930;1271;72396;-75
2022/03/17 12:54:02;;;;;;;33.40;20.20;;;;;;;11.93;37.21;101648.12;105161;1272;59660;-76
2022/03/17 12:56:53;;;;;;;32.80;20.70;;;;;;;11.86;37.38;101655.83;104910;1271;61026;-76
2022/03/17 12:59:41;;;;;;;30.20;17.50;;;;;;;11.76;37.35;101651.73;105126;1271;72606;-74
2022/03/17 13:02:29;;;;;;;30.20;18.70;;;;;;;11.74;37.02;101649.71;104736;1274;68356;-76
2022/03/17 13:08:28;;;;;;;34.90;18.90;;;;;;;11.55;35.93;101652.05;104915;1271;59692;-74
2022/03/17 13:14:28;;;;;;;26.30;16.20;;;;;;;11.27;35.51;101650.78;104837;1272;73387;-76